createdAt,value
2022-07-29T00:00:00.005Z,24542.41
2022-07-29T00:02:27.662Z,24777.30
2022-07-29T00:04:54.758Z,24922.64
2022-07-29T00:07:21.453Z,25256.89
2022-07-29T00:09:52.180Z,25149.03
2022-07-29T00:12:25.488Z,25188.04
2022-07-29T00:14:55.412Z,25493.13
2022-07-29T00:17:23.529Z,25724.46
2022-07-29T00:19:50.270Z,25439.46
2022-07-29T00:22:16.945Z,25514.84
2022-07-29T00:24:43.639Z,25552.24
2022-07-29T00:27:10.329Z,25530.70
2022-07-29T00:29:37.060Z,25648.33
2022-07-29T00:32:04.002Z,24905.44
2022-07-29T00:34:31.055Z,25583.57
2022-07-29T00:36:58.251Z,26292.15
2022-07-29T00:39:25.029Z,27584.60
2022-07-29T00:41:54.289Z,28037.48
2022-07-29T00:44:21.003Z,27300.84
2022-07-29T00:46:48.024Z,28394.34
2022-07-29T00:49:14.944Z,28047.41
2022-07-29T00:51:41.883Z,28591.20
2022-07-29T00:54:08.806Z,28799.94
2022-07-29T00:56:35.654Z,29454.85
2022-07-29T00:59:02.588Z,29682.04
2022-07-29T01:01:29.478Z,29058.75
2022-07-29T01:03:56.461Z,29121.40
2022-07-29T01:06:25.869Z,28858.65
2022-07-29T01:08:52.689Z,28988.04
2022-07-29T01:11:20.196Z,28552.35
2022-07-29T01:13:48.716Z,28021.97
2022-07-29T01:16:36.373Z,28249.13
2022-07-29T01:19:24.047Z,27934.01
2022-07-29T01:21:50.707Z,28034.07
2022-07-29T01:24:31.206Z,27944.11
2022-07-29T01:27:25.337Z,29261.62
2022-07-29T01:30:05.404Z,29157.04
2022-07-29T01:32:41.157Z,28740.64
2022-07-29T01:35:27.249Z,28413.94
2022-07-29T01:38:07.878Z,25970.37
2022-07-29T01:41:02.413Z,24062.22
2022-07-29T01:43:56.636Z,24427.16
2022-07-29T01:46:34.344Z,25122.77
2022-07-29T01:49:11.023Z,25802.02
2022-07-29T01:51:58.576Z,27603.43
2022-07-29T01:54:51.756Z,27139.78
2022-07-29T01:57:26.259Z,27757.64
2022-07-29T01:59:57.257Z,27623.59
2022-07-29T02:02:27.178Z,28079.09
2022-07-29T02:04:57.280Z,28507.61
2022-07-29T02:07:29.187Z,28686.41
2022-07-29T02:09:59.135Z,28377.16
2022-07-29T02:12:29.456Z,28136.76
2022-07-29T02:15:02.397Z,29143.95
2022-07-29T02:17:40.839Z,27815.39
2022-07-29T02:20:10.521Z,28351.52
2022-07-29T02:22:40.551Z,27851.97
2022-07-29T02:25:13.809Z,28282.57
2022-07-29T02:27:43.605Z,28177.02
2022-07-29T02:30:11.080Z,26867.06
2022-07-29T02:32:41.027Z,28039.12
2022-07-29T02:35:10.218Z,28487.47
2022-07-29T02:37:39.418Z,29285.79
2022-07-29T02:40:12.025Z,28571.59
2022-07-29T02:42:42.210Z,28913.36
2022-07-29T02:45:10.378Z,28560.62
2022-07-29T02:47:49.511Z,28214.45
2022-07-29T02:50:35.586Z,27865.29
2022-07-29T02:53:09.937Z,28075.46
2022-07-29T02:55:55.950Z,27723.30
2022-07-29T02:58:35.586Z,27791.56
2022-07-29T03:01:21.651Z,27747.43
2022-07-29T03:03:52.817Z,28145.63
2022-07-29T03:06:31.369Z,28351.14
2022-07-29T03:09:12.850Z,27663.17
2022-07-29T03:11:50.364Z,27746.33
2022-07-29T03:14:19.807Z,27867.75
2022-07-29T03:16:48.052Z,27526.86
2022-07-29T03:19:15.456Z,27319.40
2022-07-29T03:21:42.543Z,27554.11
2022-07-29T03:24:10.804Z,27026.52
2022-07-29T03:26:37.971Z,27216.04
2022-07-29T03:29:04.885Z,27031.49
2022-07-29T03:31:31.792Z,27705.89
2022-07-29T03:34:00.667Z,27427.61
2022-07-29T03:36:27.657Z,27638.42
2022-07-29T03:38:56.367Z,27365.09
2022-07-29T03:41:26.621Z,27483.34
2022-07-29T03:43:55.969Z,27799.34
2022-07-29T03:46:29.362Z,27720.60
2022-07-29T03:49:02.202Z,27781.94
2022-07-29T03:51:31.538Z,29173.02
2022-07-29T03:54:06.420Z,27781.68
2022-07-29T03:56:42.070Z,27816.65
2022-07-29T03:59:11.606Z,27902.32
2022-07-29T04:01:39.991Z,28056.40
2022-07-29T04:04:06.949Z,27706.09
2022-07-29T04:06:44.973Z,27219.34
2022-07-29T04:09:13.086Z,27646.51
2022-07-29T04:12:02.383Z,27423.14
2022-07-29T04:14:48.236Z,27226.81
2022-07-29T04:17:15.152Z,27527.01
2022-07-29T04:19:42.007Z,27830.34
2022-07-29T04:22:08.822Z,27989.71
2022-07-29T04:24:36.040Z,28124.12
2022-07-29T04:27:02.886Z,28409.00
2022-07-29T04:29:29.616Z,28376.24
2022-07-29T04:31:56.591Z,28476.22
2022-07-29T04:34:23.353Z,28654.47
2022-07-29T04:36:55.554Z,28753.20
2022-07-29T04:39:23.324Z,28582.92
2022-07-29T04:41:51.279Z,28625.24
2022-07-29T04:44:19.860Z,28413.28
2022-07-29T04:46:46.842Z,28704.15
2022-07-29T04:49:13.682Z,28758.03
2022-07-29T04:51:40.490Z,28767.58
2022-07-29T04:54:07.369Z,28724.19
2022-07-29T04:56:34.126Z,28710.99
2022-07-29T04:59:00.861Z,28614.38
2022-07-29T05:01:27.883Z,28688.45
2022-07-29T05:03:59.883Z,28388.90
2022-07-29T05:06:27.297Z,28635.68
2022-07-29T05:08:53.977Z,28591.71
2022-07-29T05:11:22.439Z,28584.14
2022-07-29T05:13:50.645Z,28785.88
2022-07-29T05:16:17.413Z,29005.75
2022-07-29T05:18:45.662Z,28674.27
2022-07-29T05:21:14.985Z,28592.54
2022-07-29T05:23:41.637Z,29074.85
2022-07-29T05:26:08.299Z,28892.53
2022-07-29T05:28:35.522Z,28521.56
2022-07-29T05:31:02.291Z,27965.88
2022-07-29T05:33:35.271Z,27267.40
2022-07-29T05:36:06.221Z,27036.92
2022-07-29T05:38:33.222Z,27158.48
2022-07-29T05:41:00.124Z,27262.85
2022-07-29T05:43:28.770Z,27347.75
2022-07-29T05:45:55.907Z,27126.31
2022-07-29T05:48:22.767Z,26899.82
2022-07-29T05:50:49.440Z,26836.56
2022-07-29T05:53:18.981Z,26866.66
2022-07-29T05:55:47.602Z,27120.40
2022-07-29T05:58:14.268Z,27221.18
2022-07-29T06:00:41.233Z,27261.23
2022-07-29T06:03:08.191Z,27165.68
2022-07-29T06:05:35.058Z,27104.01
2022-07-29T06:08:01.863Z,27486.44
2022-07-29T06:10:28.540Z,27411.64
2022-07-29T06:12:55.770Z,27353.86
2022-07-29T06:15:22.424Z,27377.90
2022-07-29T06:17:58.914Z,27505.22
2022-07-29T06:20:31.281Z,27651.00
2022-07-29T06:22:58.519Z,27795.52
2022-07-29T06:25:25.220Z,27752.63
2022-07-29T06:27:53.653Z,27630.51
2022-07-29T06:30:20.493Z,27478.13
2022-07-29T06:32:47.244Z,27435.94
2022-07-29T06:38:00.677Z,27521.54
2022-07-29T06:40:27.564Z,27647.27
2022-07-29T06:42:54.416Z,27869.56
2022-07-29T06:45:21.271Z,27951.10
2022-07-29T06:47:47.935Z,27545.10
2022-07-29T06:50:14.643Z,27574.97
2022-07-29T06:52:41.390Z,27924.55
2022-07-29T06:55:08.994Z,28038.47
2022-07-29T06:57:36.001Z,27500.58
2022-07-29T07:00:03.442Z,27529.52
2022-07-29T07:02:30.224Z,27836.00
2022-07-29T07:04:56.956Z,26964.71
2022-07-29T07:07:23.935Z,27094.99
2022-07-29T07:09:50.654Z,27052.86
2022-07-29T07:12:17.551Z,26913.09
2022-07-29T07:14:44.352Z,26285.69
2022-07-29T07:17:11.000Z,26497.03
2022-07-29T07:19:37.749Z,26482.16
2022-07-29T07:22:04.818Z,26445.70
2022-07-29T07:24:31.608Z,26236.36
2022-07-29T07:26:58.447Z,26045.66
2022-07-29T07:29:25.259Z,26140.65
2022-07-29T07:31:53.506Z,26198.35
2022-07-29T07:34:28.317Z,26329.48
2022-07-29T07:36:56.436Z,26253.98
2022-07-29T07:39:23.198Z,27541.58
2022-07-29T07:41:49.923Z,27213.94
2022-07-29T07:44:17.203Z,14496.13
2022-07-29T07:46:44.347Z,15042.17
2022-07-29T07:49:12.044Z,18410.08
2022-07-29T07:51:38.784Z,18618.82
2022-07-29T07:54:05.750Z,16987.78
2022-07-29T07:56:35.292Z,14187.41
2022-07-29T07:59:02.245Z,10487.04
2022-07-29T08:01:29.072Z,9164.21
2022-07-29T08:04:15.195Z,8865.03
2022-07-29T08:06:42.578Z,8414.04
2022-07-29T08:09:28.325Z,8907.90
2022-07-29T08:11:56.752Z,8630.40
2022-07-29T08:14:23.462Z,8078.67
2022-07-29T08:16:50.301Z,8209.27
2022-07-29T08:19:17.139Z,8176.84
2022-07-29T08:21:43.913Z,8189.75
2022-07-29T08:24:10.671Z,8338.54
2022-07-29T08:26:37.522Z,8776.89
2022-07-29T08:29:04.248Z,8890.63
2022-07-29T08:31:31.053Z,8294.91
2022-07-29T08:33:57.883Z,8940.20
2022-07-29T08:36:25.553Z,8899.11
2022-07-29T08:38:52.337Z,8502.63
2022-07-29T08:41:20.956Z,8817.64
2022-07-29T08:43:49.487Z,7436.56
2022-07-29T08:46:17.059Z,7497.79
2022-07-29T08:48:44.592Z,7798.36
2022-07-29T08:51:16.456Z,7896.03
2022-07-29T08:53:45.652Z,7616.94
2022-07-29T08:56:13.865Z,7695.08
2022-07-29T08:58:42.004Z,7996.20
2022-07-29T09:01:15.121Z,8116.57
2022-07-29T09:03:45.572Z,8287.23
2022-07-29T09:06:18.948Z,8097.98
2022-07-29T09:08:46.269Z,7929.85
2022-07-29T09:11:14.472Z,7865.35
2022-07-29T09:13:41.690Z,7745.46
2022-07-29T09:16:09.491Z,7625.58
2022-07-29T09:18:42.702Z,7670.32
2022-07-29T09:21:12.585Z,7726.89
2022-07-29T09:23:39.264Z,7708.50
2022-07-29T09:26:06.984Z,7716.19
2022-07-29T09:28:36.550Z,7838.08
2022-07-29T09:31:03.450Z,7819.94
2022-07-29T09:33:35.384Z,7790.24
2022-07-29T09:36:09.474Z,8082.53
2022-07-29T09:38:37.289Z,7873.81
2022-07-29T09:41:06.703Z,7784.60
2022-07-29T09:43:35.453Z,7824.66
2022-07-29T09:46:12.819Z,7994.11
2022-07-29T09:48:39.791Z,8136.98
2022-07-29T09:51:06.590Z,8300.59
2022-07-29T09:53:38.971Z,8774.37
2022-07-29T09:56:06.145Z,8958.43
2022-07-29T09:58:33.392Z,9022.73
2022-07-29T10:01:02.509Z,9118.14
2022-07-29T10:03:29.279Z,8992.70
2022-07-29T10:06:25.201Z,8213.94
2022-07-29T10:08:52.422Z,9398.67
2022-07-29T10:11:22.794Z,9710.53
2022-07-29T10:13:49.665Z,9126.20
2022-07-29T10:16:17.529Z,8789.90
2022-07-29T10:18:45.441Z,9056.74
2022-07-29T10:21:34.860Z,9834.88
2022-07-29T10:24:01.353Z,9038.06
2022-07-29T10:26:30.424Z,8623.36
2022-07-29T10:28:57.204Z,10930.71
2022-07-29T10:31:37.451Z,14142.12
2022-07-29T10:34:33.924Z,18648.73
2022-07-29T10:37:18.151Z,19292.41
2022-07-29T10:40:11.711Z,17272.82
2022-07-29T10:42:43.591Z,19598.34
2022-07-29T10:45:11.760Z,19687.19
2022-07-29T10:47:39.204Z,19227.80
2022-07-29T10:50:07.009Z,19003.36
2022-07-29T10:52:54.652Z,20587.47
2022-07-29T10:55:33.469Z,20302.60
2022-07-29T10:58:23.866Z,18380.70
2022-07-29T11:00:52.852Z,20671.55
2022-07-29T11:03:49.652Z,21771.17
2022-07-29T11:06:26.463Z,23967.89
2022-07-29T11:09:16.959Z,23729.52
2022-07-29T11:14:58.247Z,21957.45
2022-07-29T11:17:24.988Z,10421.89
2022-07-29T11:20:31.177Z,9709.65
2022-07-29T11:22:59.537Z,6632.35
2022-07-29T11:25:50.832Z,6230.83
2022-07-29T11:28:25.038Z,7815.63
2022-07-29T11:30:58.007Z,21703.27
2022-07-29T11:33:54.293Z,23164.13
2022-07-29T11:36:28.377Z,22573.22
2022-07-29T11:39:27.356Z,22072.30
2022-07-29T11:42:28.528Z,20974.24
2022-07-29T11:45:09.060Z,21121.14
2022-07-29T11:47:55.955Z,20042.75
2022-07-29T11:50:36.592Z,19724.30
2022-07-29T11:53:11.787Z,19707.49
2022-07-29T11:55:51.356Z,19749.92
2022-07-29T11:58:25.020Z,19979.73
2022-07-29T12:00:53.141Z,20018.81
2022-07-29T12:03:33.428Z,20014.82
2022-07-29T12:06:07.602Z,19048.34
2022-07-29T12:08:42.162Z,18676.79
2022-07-29T12:11:17.274Z,24503.55
2022-07-29T12:13:44.003Z,25160.61
2022-07-29T12:16:12.779Z,23436.33
2022-07-29T12:18:41.609Z,10612.71
2022-07-29T12:21:08.434Z,26497.33
2022-07-29T12:23:35.636Z,28843.75
2022-07-29T12:26:07.646Z,28487.57
2022-07-29T12:28:39.317Z,28438.51
2022-07-29T12:31:06.384Z,28096.29
2022-07-29T12:33:35.779Z,27786.19
2022-07-29T12:36:07.633Z,27716.65
2022-07-29T12:38:36.662Z,27789.26
2022-07-29T12:41:04.460Z,27783.32
2022-07-29T12:43:32.244Z,27566.40
2022-07-29T12:46:12.140Z,27386.71
2022-07-29T12:48:44.212Z,27380.54
2022-07-29T12:51:12.197Z,27217.29
2022-07-29T12:53:39.053Z,27315.77
2022-07-29T12:56:20.710Z,27584.52
2022-07-29T12:58:55.057Z,27703.34
2022-07-29T13:01:22.620Z,27957.98
2022-07-29T13:03:56.786Z,28251.74
2022-07-29T13:06:37.749Z,28146.79
2022-07-29T13:09:09.435Z,28284.24
2022-07-29T13:11:46.568Z,28193.43
2022-07-29T13:14:32.515Z,28379.71
2022-07-29T13:17:06.912Z,28228.12
2022-07-29T13:19:45.010Z,28250.80
2022-07-29T13:22:18.703Z,28612.56
2022-07-29T13:24:58.832Z,28655.37
2022-07-29T13:27:28.069Z,29248.75
2022-07-29T13:29:56.746Z,29382.30
2022-07-29T13:32:28.258Z,29725.27
2022-07-29T13:34:57.319Z,29841.21
2022-07-29T13:37:24.177Z,30109.82
2022-07-29T13:39:53.257Z,30011.25
2022-07-29T13:42:20.685Z,29948.54
2022-07-29T13:44:47.439Z,30655.17
2022-07-29T13:47:14.097Z,30533.19
2022-07-29T13:49:41.066Z,30358.75
2022-07-29T13:52:07.758Z,30898.25
2022-07-29T13:54:38.799Z,30001.22
2022-07-29T13:57:08.786Z,30271.95
2022-07-29T13:59:35.453Z,30239.18
2022-07-29T14:02:02.219Z,30336.12
2022-07-29T14:04:28.956Z,30210.95
2022-07-29T14:06:55.808Z,30178.96
2022-07-29T14:09:22.499Z,29769.62
2022-07-29T14:11:49.245Z,29887.14
2022-07-29T14:14:16.237Z,29283.92
2022-07-29T14:16:47.890Z,29641.20
2022-07-29T14:19:17.335Z,29320.32
2022-07-29T14:21:54.611Z,29160.31
2022-07-29T14:24:23.989Z,29132.49
2022-07-29T14:26:52.626Z,29209.72
2022-07-29T14:29:19.286Z,29074.26
2022-07-29T14:31:46.031Z,28982.26
2022-07-29T14:34:12.771Z,28376.68
2022-07-29T14:36:39.455Z,28534.19
2022-07-29T14:39:07.335Z,28478.50
2022-07-29T14:41:34.010Z,28621.21
2022-07-29T14:44:00.749Z,28350.66
2022-07-29T14:46:28.460Z,28286.28
2022-07-29T14:48:55.254Z,28546.64
2022-07-29T14:51:21.936Z,28396.68
2022-07-29T14:53:48.621Z,28302.10
2022-07-29T14:56:36.166Z,28268.00
2022-07-29T14:59:02.070Z,28178.10
2022-07-29T15:01:28.908Z,28354.60
2022-07-29T15:03:59.555Z,28182.31
2022-07-29T15:06:27.981Z,28291.83
2022-07-29T15:08:54.715Z,28185.07
2022-07-29T15:11:21.401Z,28253.72
2022-07-29T15:13:48.062Z,28166.08
2022-07-29T15:16:14.858Z,28651.17
2022-07-29T15:18:41.562Z,28747.23
2022-07-29T15:21:08.342Z,28241.83
2022-07-29T15:23:35.397Z,28551.79
2022-07-29T15:26:02.124Z,28498.94
2022-07-29T15:28:28.942Z,28428.62
2022-07-29T15:30:55.722Z,28554.68
2022-07-29T15:33:23.561Z,28314.33
2022-07-29T15:35:52.732Z,28226.09
2022-07-29T15:38:19.422Z,28347.89
2022-07-29T15:40:46.103Z,28328.02
2022-07-29T15:43:12.858Z,28439.70
2022-07-29T15:45:42.126Z,28300.02
2022-07-29T15:48:14.628Z,28530.69
2022-07-29T15:50:41.668Z,28255.93
2022-07-29T15:53:08.359Z,28140.01
2022-07-29T15:55:34.998Z,28389.26
2022-07-29T15:58:01.705Z,28157.33
2022-07-29T16:00:28.432Z,28143.57
2022-07-29T16:02:55.930Z,28469.16
2022-07-29T16:05:22.709Z,28518.99
2022-07-29T16:07:49.536Z,28312.07
2022-07-29T16:10:16.190Z,28485.08
2022-07-29T16:12:42.850Z,28410.53
2022-07-29T16:15:10.633Z,28489.85
2022-07-29T16:17:38.465Z,28120.45
2022-07-29T16:20:05.955Z,27950.65
2022-07-29T16:22:32.750Z,28294.43
2022-07-29T16:24:59.419Z,28275.25
2022-07-29T16:27:26.453Z,28308.28
2022-07-29T16:30:02.093Z,28320.32
2022-07-29T16:32:28.862Z,28255.81
2022-07-29T16:34:55.573Z,28553.23
2022-07-29T16:37:22.296Z,28348.28
2022-07-29T16:39:48.939Z,27979.93
2022-07-29T16:42:30.983Z,28464.11
2022-07-29T16:45:03.119Z,28375.00
2022-07-29T16:47:29.927Z,27824.42
2022-07-29T16:49:56.813Z,27796.06
2022-07-29T16:52:23.779Z,27627.54
2022-07-29T16:54:50.653Z,27202.92
2022-07-29T16:57:17.436Z,27462.69
2022-07-29T16:59:44.204Z,27763.79
2022-07-29T17:02:10.955Z,27800.09
2022-07-29T17:04:37.717Z,26852.32
2022-07-29T17:07:04.371Z,27148.22
2022-07-29T17:09:31.068Z,27714.72
2022-07-29T17:11:57.735Z,27317.40
2022-07-29T17:14:29.375Z,27858.53
2022-07-29T17:17:00.294Z,27454.70
2022-07-29T17:19:31.362Z,27927.12
2022-07-29T17:22:06.760Z,27506.86
2022-07-29T17:24:38.277Z,27575.75
2022-07-29T17:27:05.947Z,27843.93
2022-07-29T17:29:32.770Z,27462.71
2022-07-29T17:31:59.469Z,27307.25
2022-07-29T17:34:26.542Z,27270.55
2022-07-29T17:36:53.359Z,27776.00
2022-07-29T17:39:20.120Z,27510.87
2022-07-29T17:41:46.810Z,27579.47
2022-07-29T17:44:13.981Z,27850.18
2022-07-29T17:46:40.796Z,28026.65
2022-07-29T17:49:07.560Z,27549.27
2022-07-29T17:51:34.452Z,27463.94
2022-07-29T17:54:01.179Z,27526.35
2022-07-29T17:56:27.854Z,27360.44
2022-07-29T17:58:54.572Z,27885.88
2022-07-29T18:01:21.310Z,27653.81
2022-07-29T18:03:48.056Z,27289.97
2022-07-29T18:06:14.732Z,27108.37
2022-07-29T18:08:41.499Z,26854.26
2022-07-29T18:11:08.165Z,27360.04
2022-07-29T18:13:41.721Z,27508.52
2022-07-29T18:16:09.435Z,27531.42
2022-07-29T18:18:36.382Z,27433.51
2022-07-29T18:21:04.396Z,28053.00
2022-07-29T18:23:31.345Z,27432.23
2022-07-29T18:25:58.055Z,27756.67
2022-07-29T18:28:25.736Z,28105.74
2022-07-29T18:30:52.913Z,27696.92
2022-07-29T18:33:21.614Z,27026.91
2022-07-29T18:35:50.901Z,28261.59
2022-07-29T18:38:17.827Z,27618.36
2022-07-29T18:40:44.603Z,27827.91
2022-07-29T18:43:11.761Z,27425.20
2022-07-29T18:45:38.465Z,27617.76
2022-07-29T18:48:06.784Z,27406.62
2022-07-29T18:50:33.553Z,27446.49
2022-07-29T18:53:00.299Z,27621.79
2022-07-29T18:55:27.008Z,27897.04
2022-07-29T18:57:56.689Z,27676.31
2022-07-29T19:00:24.757Z,27240.79
2022-07-29T19:02:51.980Z,27256.75
2022-07-29T19:05:19.022Z,27560.11
2022-07-29T19:07:45.718Z,27338.05
2022-07-29T19:10:12.536Z,27533.60
2022-07-29T19:12:39.200Z,27624.63
2022-07-29T19:15:06.250Z,27442.36
2022-07-29T19:17:32.969Z,27713.66
2022-07-29T19:19:59.996Z,27686.25
2022-07-29T19:22:26.686Z,27723.25
2022-07-29T19:24:53.358Z,27641.45
2022-07-29T19:27:21.411Z,27649.50
2022-07-29T19:29:48.146Z,27686.72
2022-07-29T19:32:24.799Z,27441.93
2022-07-29T19:34:52.401Z,27784.28
2022-07-29T19:37:19.151Z,27781.92
2022-07-29T19:39:45.822Z,27816.57
2022-07-29T19:42:12.641Z,27707.43
2022-07-29T19:44:39.381Z,28246.48
2022-07-29T19:47:06.092Z,28274.20
2022-07-29T19:49:32.849Z,28318.20
2022-07-29T19:51:59.887Z,28429.69
2022-07-29T19:54:26.651Z,28107.19
2022-07-29T19:56:53.359Z,28226.83
2022-07-29T19:59:23.860Z,28129.17
2022-07-29T20:01:51.386Z,28246.41
2022-07-29T20:04:18.075Z,28505.42
2022-07-29T20:06:44.783Z,28303.20
2022-07-29T20:09:20.353Z,28548.16
2022-07-29T20:11:47.230Z,28327.56
2022-07-29T20:14:14.002Z,28206.84
2022-07-29T20:16:40.726Z,28207.18
2022-07-29T20:19:07.473Z,28355.65
2022-07-29T20:21:34.177Z,28294.14
2022-07-29T20:24:02.919Z,28543.34
2022-07-29T20:26:34.035Z,28555.05
2022-07-29T20:29:00.808Z,28183.84
2022-07-29T20:31:27.904Z,28159.52
2022-07-29T20:33:54.694Z,28143.22
2022-07-29T20:36:21.453Z,28160.29
2022-07-29T20:38:48.148Z,28077.71
2022-07-29T20:41:15.431Z,28115.14
2022-07-29T20:43:43.126Z,28115.63
2022-07-29T20:46:10.004Z,28282.88
2022-07-29T20:48:36.993Z,28130.61
2022-07-29T20:51:03.695Z,28386.53
2022-07-29T20:53:30.502Z,28226.44
2022-07-29T20:55:57.295Z,28541.80
2022-07-29T20:58:24.056Z,28338.98
2022-07-29T21:00:51.295Z,28471.66
2022-07-29T21:03:18.061Z,28478.71
2022-07-29T21:05:44.908Z,28362.17
2022-07-29T21:08:11.701Z,28092.77
2022-07-29T21:10:38.361Z,28214.00
2022-07-29T21:13:05.112Z,28268.69
2022-07-29T21:15:32.342Z,28136.06
2022-07-29T21:17:59.279Z,28246.67
2022-07-29T21:20:26.638Z,28802.40
2022-07-29T21:22:53.404Z,28585.99
2022-07-29T21:25:20.106Z,28446.48
2022-07-29T21:27:47.999Z,28514.18
2022-07-29T21:30:14.755Z,28439.15
2022-07-29T21:32:41.622Z,28408.05
2022-07-29T21:35:14.501Z,28454.77
2022-07-29T21:37:54.234Z,28304.96
2022-07-29T21:40:21.435Z,28339.74
2022-07-29T21:42:48.162Z,28233.06
2022-07-29T21:45:16.561Z,28071.02
2022-07-29T21:47:43.290Z,28274.00
2022-07-29T21:50:10.098Z,28381.73
2022-07-29T21:52:37.315Z,28439.04
2022-07-29T21:55:04.516Z,28435.08
2022-07-29T21:57:31.367Z,28346.82
2022-07-29T22:00:02.511Z,28466.45
2022-07-29T22:02:29.993Z,28407.94
2022-07-29T22:04:56.695Z,28330.69
2022-07-29T22:07:24.449Z,28392.76
2022-07-29T22:10:11.178Z,28173.27
2022-07-29T22:12:37.899Z,28379.87
2022-07-29T22:15:05.410Z,28584.33
2022-07-29T22:17:32.203Z,28466.31
2022-07-29T22:19:58.922Z,28226.13
2022-07-29T22:22:25.741Z,28275.88
2022-07-29T22:24:52.729Z,28472.96
2022-07-29T22:27:19.521Z,28333.69
2022-07-29T22:29:46.224Z,28436.25
2022-07-29T22:32:13.080Z,28422.69
2022-07-29T22:34:39.820Z,28392.40
2022-07-29T22:37:07.052Z,28166.72
2022-07-29T22:39:33.759Z,28288.51
2022-07-29T22:42:00.542Z,28376.26
2022-07-29T22:44:27.319Z,28430.71
2022-07-29T22:46:54.023Z,28554.03
2022-07-29T22:49:20.868Z,28124.21
2022-07-29T22:51:47.661Z,28207.39
2022-07-29T22:54:14.556Z,28240.66
2022-07-29T22:56:41.499Z,28152.00
2022-07-29T22:59:08.227Z,28178.65
2022-07-29T23:01:37.550Z,28165.16
2022-07-29T23:04:04.619Z,28220.54
2022-07-29T23:06:31.465Z,28401.60
2022-07-29T23:08:58.202Z,28571.50
2022-07-29T23:11:25.114Z,28638.20
2022-07-29T23:13:53.992Z,28472.20
2022-07-29T23:16:26.477Z,28250.54
2022-07-29T23:18:54.497Z,28404.65
2022-07-29T23:21:21.605Z,28343.75
2022-07-29T23:23:49.272Z,28401.29
2022-07-29T23:26:16.471Z,28507.17
2022-07-29T23:28:46.320Z,28461.22
2022-07-29T23:31:13.118Z,28368.19
2022-07-29T23:33:41.084Z,28457.73
2022-07-29T23:36:08.010Z,28224.57
2022-07-29T23:38:34.766Z,28187.58
2022-07-29T23:41:02.743Z,28319.66
2022-07-29T23:43:29.456Z,28537.90
2022-07-29T23:45:56.366Z,28326.68
2022-07-29T23:48:25.010Z,28334.72
2022-07-29T23:50:51.898Z,28315.47
2022-07-29T23:53:18.812Z,28102.62
2022-07-29T23:55:45.509Z,28199.64
2022-07-29T23:58:12.293Z,28316.38
